Bedford, Canada
Current Conditions -  °F | °C
As of 12:42 AM on Sunday 26 Oct 2014 (Local Time) from CYHZ Reporting Station
Broken Clouds Broken Clouds  
Wind Chill: 42°   Ceiling: 800
Heat Index: 46°   Visibility: 15mi
Dew Point: 45°   Wind: 8mph
Humidity: 93%   Direction: 300°WNW
Pressure: 29.51"   Gusts: NA
Location:  44.73°N, 63.66°W
Report Text: CYHZ 260342Z 30007KT 15SM BKN008 BKN040 08/07 A2951 RMK SF5SC1 SLP995
Loading
Personal Weather Stations






























Interactive Weather Map
Tropical Storm Tracking
New forecast layout! Learn more

10-Day Weather Forecast

Advertisements
Track Severe Weather on mobile